Time;durP1;ratioP1;P1;durP2;ratioP2;P2;SDS_P1;SDS_P2;PMS_P1;PMS_P2;Temp;Humidity;BMP_temperature;BMP_pressure;BME280_temperature;BME280_humidity;BME280_pressure;Samples;Min_cycle;Max_cycle;Signal;HPM_P1;HPM_P2
2023/04/07 00:02:12;;;;;;;7.00;2.72;;;9.30;99.90;;;;;;5054720;28;20103;-66
2023/04/07 00:04:38;;;;;;;6.85;2.60;;;9.30;99.90;;;;;;5054712;28;20132;-66
2023/04/07 00:07:04;;;;;;;6.00;2.80;;;9.30;99.90;;;;;;5036834;28;20164;-66
2023/04/07 00:09:32;;;;;;;6.03;2.42;;;9.30;99.90;;;;;;5054729;28;20067;-64
2023/04/07 00:12:00;;;;;;;8.32;2.55;;;9.20;99.90;;;;;;5054659;28;20033;-66
2023/04/07 00:14:26;;;;;;;4.90;2.40;;;9.10;99.90;;;;;;5054852;28;20032;-67
2023/04/07 00:16:52;;;;;;;6.75;2.88;;;9.10;99.90;;;;;;5054581;28;20029;-66
2023/04/07 00:19:18;;;;;;;6.55;2.58;;;9.20;99.90;;;;;;5036125;28;20120;-67
2023/04/07 00:21:44;;;;;;;6.30;2.90;;;9.20;99.90;;;;;;5054715;28;20078;-66
2023/04/07 00:24:11;;;;;;;6.82;2.65;;;9.20;99.90;;;;;;5054783;28;20025;-66
2023/04/07 00:26:37;;;;;;;8.60;2.70;;;9.20;99.90;;;;;;5054565;28;20040;-66
2023/04/07 00:29:03;;;;;;;5.35;2.55;;;9.30;99.90;;;;;;5054692;28;20029;-66
2023/04/07 00:31:29;;;;;;;8.85;2.90;;;9.20;99.90;;;;;;5054430;28;20106;-66
2023/04/07 00:33:56;;;;;;;6.82;2.95;;;9.20;99.90;;;;;;5054391;28;20495;-65
2023/04/07 00:36:22;;;;;;;;;;;9.30;99.90;;;;;;5054930;28;20017;-66
2023/04/07 00:38:48;;;;;;;7.10;2.67;;;9.10;99.90;;;;;;5054162;28;20000;-66
2023/04/07 00:41:14;;;;;;;6.38;2.55;;;9.00;99.90;;;;;;5054417;28;20258;-67
2023/04/07 00:43:40;;;;;;;12.45;2.65;;;9.00;99.90;;;;;;5054042;28;20139;-66
2023/04/07 00:46:06;;;;;;;4.43;2.60;;;8.90;99.90;;;;;;5054297;28;20493;-67
2023/04/07 00:48:33;;;;;;;7.25;2.80;;;8.90;99.90;;;;;;5053667;28;20036;-66
2023/04/07 00:50:59;;;;;;;5.63;2.75;;;9.10;99.90;;;;;;5054410;28;20041;-63
2023/04/07 00:53:25;;;;;;;5.77;2.67;;;9.10;99.90;;;;;;5054297;28;20029;-67
2023/04/07 00:55:51;;;;;;;7.38;2.67;;;9.20;99.90;;;;;;5053820;28;20673;-66
2023/04/07 00:58:20;;;;;;;6.45;2.85;;;9.20;99.90;;;;;;5053501;28;20456;-67
2023/04/07 01:01:01;;;;;;;6.25;2.63;;;9.20;99.90;;;;;;5054174;28;20107;-65
2023/04/07 01:03:35;;;;;;;7.53;3.10;;;9.20;99.90;;;;;;5054012;28;20033;-66
2023/04/07 01:06:04;;;;;;;8.02;2.88;;;9.20;99.90;;;;;;5053986;28;20043;-66
2023/04/07 01:08:45;;;;;;;9.55;3.13;;;9.20;99.90;;;;;;5053562;28;20036;-66
2023/04/07 01:11:24;;;;;;;5.80;2.72;;;9.20;99.90;;;;;;5054076;28;20025;-66
2023/04/07 01:13:51;;;;;;;7.03;2.78;;;9.20;99.90;;;;;;5053676;28;20086;-66
2023/04/07 01:16:26;;;;;;;4.90;2.80;;;9.20;99.90;;;;;;5053432;28;20111;-66
2023/04/07 01:19:00;;;;;;;8.85;2.53;;;9.20;99.90;;;;;;5053070;28;20045;-66
2023/04/07 01:21:28;;;;;;;6.88;3.00;;;9.20;99.90;;;;;;5053234;28;20029;-66
2023/04/07 01:24:28;;;;;;;5.35;3.15;;;9.20;99.90;;;;;;5053791;28;20067;-67
2023/04/07 01:27:04;;;;;;;8.77;3.08;;;9.20;99.90;;;;;;5053564;28;20115;-66
2023/04/07 01:29:36;;;;;;;8.00;2.97;;;9.10;99.90;;;;;;5053434;28;20029;-66
2023/04/07 01:32:05;;;;;;;5.40;2.97;;;9.20;99.90;;;;;;5053399;28;20444;-67
2023/04/07 01:34:32;;;;;;;7.88;3.00;;;9.10;99.90;;;;;;5052880;28;20021;-65
2023/04/07 01:37:01;;;;;;;5.95;2.78;;;9.10;99.90;;;;;;5053508;28;20025;-66
2023/04/07 01:39:27;;;;;;;7.50;3.20;;;9.10;99.90;;;;;;5052962;28;20028;-67
2023/04/07 01:41:55;;;;;;;6.57;2.63;;;9.10;99.90;;;;;;5053378;28;20032;-66
2023/04/07 01:44:23;;;;;;;8.30;2.72;;;9.00;99.90;;;;;;5052821;28;20021;-67
2023/04/07 01:46:50;;;;;;;8.20;2.97;;;9.00;99.90;;;;;;5052858;28;20025;-67
2023/04/07 01:49:17;;;;;;;6.95;2.80;;;9.00;99.90;;;;;;5052666;28;20133;-66
2023/04/07 01:51:49;;;;;;;4.72;2.63;;;8.90;99.90;;;;;;5053109;28;20112;-65
2023/04/07 01:54:16;;;;;;;9.23;2.95;;;8.90;99.90;;;;;;5052747;28;20104;-65
2023/04/07 01:56:43;;;;;;;8.63;2.55;;;9.00;99.90;;;;;;5052999;28;20021;-67
2023/04/07 01:59:10;;;;;;;6.50;3.10;;;9.00;99.90;;;;;;5052540;28;20061;-67
2023/04/07 02:01:36;;;;;;;11.18;3.45;;;9.00;99.90;;;;;;5052654;28;20025;-67
2023/04/07 02:04:17;;;;;;;8.20;2.80;;;9.00;99.90;;;;;;5052576;28;20035;-65
2023/04/07 02:07:17;;;;;;;9.38;2.53;;;9.00;99.90;;;;;;5052709;28;20036;-67
2023/04/07 02:09:46;;;;;;;6.60;2.75;;;9.00;99.90;;;;;;5051766;28;20111;-67
2023/04/07 02:12:15;;;;;;;7.40;2.53;;;9.00;99.90;;;;;;5052778;28;20032;-67
2023/04/07 02:14:42;;;;;;;8.27;2.90;;;8.80;99.90;;;;;;5052202;28;20031;-66
2023/04/07 02:17:09;;;;;;;4.35;2.50;;;8.50;99.90;;;;;;5034449;28;20483;-66
2023/04/07 02:19:35;;;;;;;;;;;8.50;99.90;;;;;;5012993;28;20041;-65
2023/04/07 02:22:05;;;;;;;6.43;2.83;;;8.40;99.90;;;;;;5012613;28;19987;-65
2023/04/07 02:24:31;;;;;;;6.00;2.50;;;8.50;99.90;;;;;;5012332;28;20034;-66
2023/04/07 02:26:59;;;;;;;6.43;2.67;;;8.50;99.90;;;;;;5012955;28;20026;-66
2023/04/07 02:29:26;;;;;;;4.75;2.90;;;8.40;99.90;;;;;;5012482;28;20101;-67
2023/04/07 02:31:52;;;;;;;9.52;2.88;;;8.50;99.90;;;;;;5012657;28;20450;-66
2023/04/07 02:34:18;;;;;;;5.28;3.03;;;8.40;99.90;;;;;;5011973;28;20061;-67
2023/04/07 02:36:44;;;;;;;5.35;2.95;;;8.40;99.90;;;;;;5012378;28;20064;-66
2023/04/07 02:39:11;;;;;;;8.60;2.88;;;8.50;99.90;;;;;;5012451;28;20106;-67
2023/04/07 02:41:37;;;;;;;10.30;3.45;;;8.40;99.90;;;;;;5012077;28;20021;-66
2023/04/07 02:44:03;;;;;;;9.27;2.80;;;8.40;99.90;;;;;;5011978;28;20328;-65
2023/04/07 02:46:29;;;;;;;11.70;3.15;;;8.40;99.90;;;;;;5011993;28;20121;-66
2023/04/07 02:48:55;;;;;;;11.95;2.90;;;8.40;99.90;;;;;;5011867;28;20026;-67
2023/04/07 02:51:21;;;;;;;4.85;2.60;;;8.30;99.90;;;;;;5012221;28;20022;-66
2023/04/07 02:53:47;;;;;;;7.45;3.13;;;8.30;99.90;;;;;;5010224;28;20113;-67
2023/04/07 02:56:15;;;;;;;7.78;3.17;;;8.30;99.90;;;;;;5011992;28;20093;-65
2023/04/07 02:58:41;;;;;;;10.32;3.20;;;8.20;99.90;;;;;;5011504;28;20160;-66
2023/04/07 03:01:07;;;;;;;8.88;3.13;;;8.20;99.90;;;;;;5011931;28;20022;-67
2023/04/07 03:03:33;;;;;;;7.22;3.03;;;8.20;99.90;;;;;;5011930;28;20113;-67
2023/04/07 03:05:59;;;;;;;8.25;2.95;;;8.20;99.90;;;;;;5011945;28;20038;-66
2023/04/07 03:08:26;;;;;;;12.55;3.28;;;8.00;99.90;;;;;;5012454;28;20037;-66
2023/04/07 03:10:52;;;;;;;5.32;2.88;;;7.90;99.90;;;;;;5012331;28;20037;-66
2023/04/07 03:13:19;;;;;;;6.38;3.25;;;7.80;99.90;;;;;;5012269;28;20177;-67
2023/04/07 03:15:46;;;;;;;7.90;3.13;;;7.80;99.90;;;;;;5011971;28;20030;-67
2023/04/07 03:18:12;;;;;;;7.30;2.63;;;7.80;99.90;;;;;;5028696;28;20071;-67
2023/04/07 03:20:40;;;;;;;9.20;3.00;;;7.80;99.90;;;;;;5051686;28;20028;-67
2023/04/07 03:23:07;;;;;;;8.40;2.67;;;7.80;99.90;;;;;;5055790;28;20025;-67
2023/04/07 03:25:33;;;;;;;7.55;3.00;;;7.80;99.90;;;;;;5056004;28;20025;-66
2023/04/07 03:27:59;;;;;;;6.55;2.88;;;7.70;99.90;;;;;;5056332;28;20033;-66
2023/04/07 03:30:26;;;;;;;10.67;3.23;;;7.80;99.90;;;;;;5056016;28;20035;-66
2023/04/07 03:32:52;;;;;;;7.78;3.08;;;7.80;99.90;;;;;;5055870;28;20346;-66
2023/04/07 03:35:18;;;;;;;9.23;3.50;;;7.80;99.90;;;;;;5055615;28;20125;-66
2023/04/07 03:37:44;;;;;;;9.05;3.00;;;7.80;99.90;;;;;;5055710;28;20472;-67
2023/04/07 03:40:10;;;;;;;6.63;3.40;;;7.80;99.90;;;;;;5056006;28;20029;-66
2023/04/07 03:42:37;;;;;;;9.75;3.72;;;7.80;99.90;;;;;;5055791;28;20025;-66
2023/04/07 03:45:03;;;;;;;9.35;3.55;;;7.90;99.90;;;;;;5055919;28;20033;-65
2023/04/07 03:47:29;;;;;;;5.90;3.00;;;7.90;99.90;;;;;;5055936;28;20381;-67
2023/04/07 03:49:55;;;;;;;11.82;4.10;;;7.90;99.90;;;;;;5055363;28;20021;-65
2023/04/07 03:52:21;;;;;;;6.40;3.20;;;7.90;99.90;;;;;;5055418;28;20028;-65
2023/04/07 03:54:47;;;;;;;17.25;4.45;;;8.00;99.90;;;;;;5055641;28;20460;-64
2023/04/07 03:57:13;;;;;;;7.20;3.35;;;8.00;99.90;;;;;;5055342;28;20103;-66
2023/04/07 03:59:40;;;;;;;9.70;3.65;;;8.00;99.90;;;;;;5037372;28;20120;-66
2023/04/07 04:02:06;;;;;;;4.18;3.03;;;8.00;99.90;;;;;;5055632;28;20036;-67
2023/04/07 04:04:32;;;;;;;6.57;3.20;;;8.00;99.90;;;;;;5054586;28;20025;-65
2023/04/07 04:06:58;;;;;;;10.48;3.60;;;8.10;99.90;;;;;;5055662;28;20028;-66
2023/04/07 04:09:24;;;;;;;7.45;3.22;;;8.20;99.90;;;;;;5055470;28;20033;-66
2023/04/07 04:11:50;;;;;;;5.90;3.15;;;8.30;99.90;;;;;;5055416;28;20112;-65
2023/04/07 04:14:16;;;;;;;7.03;3.28;;;8.10;99.90;;;;;;5054980;28;20024;-66
2023/04/07 04:16:42;;;;;;;6.07;3.00;;;8.10;99.90;;;;;;5056019;28;20055;-65
2023/04/07 04:19:08;;;;;;;6.18;3.05;;;8.10;99.90;;;;;;5055062;28;20052;-65
2023/04/07 04:21:35;;;;;;;8.25;3.05;;;8.10;99.90;;;;;;5055538;28;20036;-66
2023/04/07 04:24:01;;;;;;;8.80;3.23;;;8.10;99.90;;;;;;5038269;28;20487;-65
2023/04/07 04:26:28;;;;;;;7.53;3.42;;;8.10;99.90;;;;;;5055588;28;20029;-66
2023/04/07 04:28:54;;;;;;;12.15;4.22;;;8.10;99.90;;;;;;5055471;28;20033;-66
2023/04/07 04:31:20;;;;;;;7.10;3.45;;;8.00;99.90;;;;;;5055716;28;20029;-66
2023/04/07 04:33:46;;;;;;;6.18;3.60;;;8.10;99.90;;;;;;5049619;28;20023;-67
2023/04/07 04:36:12;;;;;;;5.40;3.40;;;8.10;99.90;;;;;;5053347;28;20050;-66
2023/04/07 04:38:38;;;;;;;9.25;3.30;;;8.00;99.90;;;;;;5054362;28;20070;-66
2023/04/07 04:41:05;;;;;;;7.22;3.50;;;8.00;99.90;;;;;;5054742;28;20025;-61
2023/04/07 04:43:33;;;;;;;5.70;3.05;;;8.00;99.90;;;;;;5053777;28;20060;-64
2023/04/07 04:45:59;;;;;;;8.00;3.60;;;8.00;99.90;;;;;;5053762;28;20523;-65
2023/04/07 04:48:26;;;;;;;7.23;3.53;;;8.00;99.90;;;;;;5044254;28;20033;-65
2023/04/07 04:50:52;;;;;;;7.43;3.50;;;8.00;99.90;;;;;;5053697;28;20473;-64
2023/04/07 04:53:21;;;;;;;6.20;3.55;;;8.00;99.90;;;;;;5053783;28;20473;-64
2023/04/07 04:55:50;;;;;;;5.93;3.53;;;8.00;99.90;;;;;;5035189;28;20029;-66
2023/04/07 04:58:18;;;;;;;10.18;3.60;;;8.10;99.90;;;;;;5053839;28;20036;-65
2023/04/07 05:00:44;;;;;;;8.65;3.42;;;8.10;99.90;;;;;;5054808;28;20032;-72
2023/04/07 05:03:11;;;;;;;10.45;3.38;;;8.20;99.90;;;;;;5054385;28;20040;-70
2023/04/07 05:05:37;;;;;;;10.40;4.18;;;8.30;99.90;;;;;;5054287;28;20461;-71
2023/04/07 05:08:04;;;;;;;8.18;3.45;;;8.30;99.90;;;;;;5054745;28;20030;-70
2023/04/07 05:10:30;;;;;;;7.23;3.37;;;8.40;99.90;;;;;;5054207;28;20029;-71
2023/04/07 05:12:56;;;;;;;7.97;3.42;;;8.30;99.90;;;;;;5054120;28;20260;-71
2023/04/07 05:15:23;;;;;;;7.13;3.42;;;8.40;99.90;;;;;;5054344;28;20029;-70
2023/04/07 05:17:49;;;;;;;6.53;2.88;;;8.50;99.90;;;;;;5054363;28;20148;-67
2023/04/07 05:20:16;;;;;;;12.45;3.53;;;8.50;99.90;;;;;;5054234;28;20077;-67
2023/04/07 05:22:42;;;;;;;10.80;3.58;;;8.60;99.90;;;;;;5054865;28;20025;-67
2023/04/07 05:25:08;;;;;;;16.80;3.47;;;8.60;99.90;;;;;;5054880;28;20115;-66
2023/04/07 05:27:35;;;;;;;6.82;3.35;;;8.80;99.90;;;;;;5054399;28;20503;-68
2023/04/07 05:30:01;;;;;;;;;;;9.90;99.90;;;;;;5055234;28;20526;-68
2023/04/07 05:32:28;;;;;;;6.07;2.80;;;11.40;99.90;;;;;;5054364;28;19904;-68
2023/04/07 05:34:54;;;;;;;5.03;2.40;;;13.10;99.90;;;;;;5054142;28;20067;-68
2023/04/07 05:37:21;;;;;;;6.43;2.50;;;14.70;99.90;;;;;;5054235;28;20017;-67
2023/04/07 05:39:47;;;;;;;6.50;2.60;;;15.50;99.90;;;;;;5054066;28;20024;-65
2023/04/07 05:42:13;;;;;;;6.20;2.67;;;16.10;99.90;;;;;;5053898;28;20045;-68
2023/04/07 05:44:39;;;;;;;6.57;2.75;;;16.70;99.90;;;;;;5053411;28;20032;-69
2023/04/07 05:47:07;;;;;;;5.83;2.23;;;16.50;99.90;;;;;;5054091;28;20468;-68
2023/04/07 05:49:37;;;;;;;7.60;2.50;;;15.70;99.90;;;;;;5035819;28;20350;-70
2023/04/07 05:52:04;;;;;;;6.70;2.53;;;14.50;99.90;;;;;;5053351;28;20051;-68
2023/04/07 05:54:30;;;;;;;5.18;2.75;;;12.70;99.90;;;;;;5035632;28;20037;-68
2023/04/07 05:56:56;;;;;;;6.33;2.60;;;12.00;99.90;;;;;;5053608;28;20032;-69
2023/04/07 05:59:22;;;;;;;5.25;2.92;;;11.40;99.90;;;;;;5053463;28;20248;-68
2023/04/07 06:01:49;;;;;;;20.73;3.60;;;11.00;99.90;;;;;;5035303;28;20524;-70
2023/04/07 06:04:15;;;;;;;6.20;2.80;;;12.10;99.90;;;;;;5053205;28;20468;-70
2023/04/07 06:06:41;;;;;;;4.87;2.30;;;13.30;99.90;;;;;;5052763;28;20056;-69
2023/04/07 06:09:07;;;;;;;;;;;14.20;99.90;;;;;;5053982;28;20021;-70
2023/04/07 06:11:34;;;;;;;10.50;2.70;;;13.60;99.90;;;;;;5053433;28;19958;-76
2023/04/07 06:14:00;;;;;;;6.13;2.63;;;14.80;99.90;;;;;;5053124;28;20425;-69
2023/04/07 06:16:28;;;;;;;5.90;2.30;;;16.00;99.90;;;;;;5053325;28;20029;-70
2023/04/07 06:18:54;;;;;;;5.47;3.00;;;15.50;99.90;;;;;;5052799;28;20067;-71
2023/04/07 06:21:20;;;;;;;10.30;2.60;;;15.20;99.90;;;;;;5053247;28;20049;-71
2023/04/07 06:23:46;;;;;;;7.53;2.60;;;17.50;99.90;;;;;;5053141;28;20753;-71
2023/04/07 06:26:12;;;;;;;8.00;2.60;;;18.60;99.90;;;;;;5053579;28;20115;-70
2023/04/07 06:28:38;;;;;;;5.32;2.35;;;18.60;99.90;;;;;;5053512;28;20024;-72
2023/04/07 06:31:06;;;;;;;6.10;2.00;;;19.00;99.90;;;;;;5053713;28;20032;-71
2023/04/07 06:33:32;;;;;;;5.15;2.05;;;17.60;99.90;;;;;;5053496;28;20032;-70
2023/04/07 06:35:58;;;;;;;5.60;2.25;;;18.60;99.90;;;;;;5035026;28;20029;-71
2023/04/07 06:38:24;;;;;;;5.60;2.20;;;18.80;99.90;;;;;;5053106;28;20114;-71
2023/04/07 06:40:51;;;;;;;5.55;2.25;;;19.50;99.90;;;;;;5053053;28;20036;-70
2023/04/07 06:43:17;;;;;;;5.22;2.15;;;18.70;99.90;;;;;;5053371;28;20368;-70
2023/04/07 06:45:43;;;;;;;7.90;2.40;;;18.50;99.90;;;;;;5052299;28;20036;-70
2023/04/07 06:48:09;;;;;;;8.40;2.70;;;18.10;99.90;;;;;;5052762;28;20100;-71
2023/04/07 06:50:39;;;;;;;8.57;2.90;;;18.30;99.90;;;;;;5052324;28;20021;-70
2023/04/07 06:53:05;;;;;;;9.02;2.50;;;19.50;99.90;;;;;;5052102;28;20025;-71
2023/04/07 06:55:31;;;;;;;5.03;2.55;;;19.10;99.90;;;;;;5051793;28;20127;-67
2023/04/07 06:57:57;;;;;;;9.60;2.53;;;18.80;99.90;;;;;;5052640;28;20021;-71
2023/04/07 07:00:24;;;;;;;8.43;2.63;;;17.10;99.90;;;;;;5052344;28;20051;-70
2023/04/07 07:02:50;;;;;;;5.15;2.10;;;17.30;99.90;;;;;;5052356;28;20021;-71
2023/04/07 07:05:16;;;;;;;5.75;2.72;;;17.50;99.90;;;;;;5051948;28;20044;-71
2023/04/07 07:07:42;;;;;;;4.82;2.60;;;17.70;99.90;;;;;;5052259;28;20029;-71
2023/04/07 07:10:09;;;;;;;5.40;2.10;;;17.60;99.90;;;;;;5052255;28;20032;-70
2023/04/07 07:12:36;;;;;;;5.95;2.30;;;17.70;99.90;;;;;;5052397;28;20017;-69
2023/04/07 07:15:02;;;;;;;7.85;2.40;;;18.70;99.90;;;;;;5034111;28;20036;-69
2023/04/07 07:17:29;;;;;;;5.35;2.33;;;20.30;99.90;;;;;;5051627;28;20578;-69
2023/04/07 07:19:56;;;;;;;8.13;2.00;;;20.50;99.90;;;;;;5052173;28;20059;-70
2023/04/07 07:22:22;;;;;;;4.97;1.80;;;20.60;99.90;;;;;;5051783;28;20039;-70
2023/04/07 07:24:48;;;;;;;6.93;1.85;;;17.10;99.90;;;;;;5052102;28;20433;-71
2023/04/07 07:27:15;;;;;;;5.75;1.83;;;15.90;99.90;;;;;;5051727;28;20481;-69
2023/04/07 07:29:41;;;;;;;4.13;2.05;;;16.90;99.90;;;;;;5051864;28;20049;-71
2023/04/07 07:32:07;;;;;;;6.45;2.00;;;18.60;99.90;;;;;;5052247;28;20380;-70
2023/04/07 07:34:33;;;;;;;4.60;1.75;;;17.80;99.90;;;;;;5051871;28;20017;-70
2023/04/07 07:36:59;;;;;;;7.10;2.05;;;17.70;99.90;;;;;;5051583;28;20070;-69
2023/04/07 07:39:25;;;;;;;4.97;2.05;;;17.10;99.90;;;;;;5051653;28;20495;-69
2023/04/07 07:41:52;;;;;;;4.93;1.63;;;17.00;99.90;;;;;;5051642;28;20100;-70
2023/04/07 07:44:23;;;;;;;4.53;1.75;;;17.30;99.90;;;;;;5052004;28;20368;-69
2023/04/07 07:46:49;;;;;;;5.68;1.75;;;17.20;99.90;;;;;;5051826;28;20459;-70
2023/04/07 07:49:16;;;;;;;6.30;1.95;;;17.30;99.90;;;;;;5051753;28;20029;-69
2023/04/07 07:51:42;;;;;;;3.92;2.00;;;16.60;99.90;;;;;;5051294;28;20396;-69
2023/04/07 07:54:08;;;;;;;4.50;1.85;;;16.20;99.90;;;;;;5051144;28;20017;-70
2023/04/07 07:56:34;;;;;;;5.63;2.10;;;15.90;99.90;;;;;;5051618;28;20033;-70
2023/04/07 07:59:01;;;;;;;5.35;2.13;;;16.30;99.90;;;;;;5051550;28;20021;-69
2023/04/07 08:01:27;;;;;;;5.22;1.73;;;16.30;99.90;;;;;;5051462;28;20465;-70
2023/04/07 08:03:53;;;;;;;6.57;2.40;;;15.80;99.90;;;;;;5050970;28;20100;-70
2023/04/07 08:06:19;;;;;;;4.03;1.98;;;16.50;99.90;;;;;;5049864;28;20388;-70
2023/04/07 08:08:45;;;;;;;4.53;2.05;;;17.10;99.90;;;;;;5053038;28;20418;-70
2023/04/07 08:11:11;;;;;;;7.10;2.20;;;17.20;99.90;;;;;;5055369;28;20103;-69
2023/04/07 08:13:37;;;;;;;5.22;1.83;;;17.30;99.90;;;;;;5054666;28;20017;-69
2023/04/07 08:16:03;;;;;;;6.30;2.00;;;15.70;99.90;;;;;;5055051;28;20067;-70
2023/04/07 08:18:30;;;;;;;3.30;1.70;;;15.90;99.90;;;;;;5023767;28;20084;-71
2023/04/07 08:20:56;;;;;;;4.78;1.70;;;15.40;99.90;;;;;;5035032;28;20029;-70
2023/04/07 08:23:22;;;;;;;4.15;1.88;;;15.80;99.90;;;;;;5034905;28;20061;-70
2023/04/07 08:25:49;;;;;;;3.85;1.92;;;15.40;99.90;;;;;;5034906;28;20171;-69
2023/04/07 08:28:15;;;;;;;4.68;1.95;;;14.70;99.90;;;;;;5033912;28;20079;-70
2023/04/07 08:30:41;;;;;;;6.87;2.33;;;15.40;99.90;;;;;;5033398;28;20025;-70
2023/04/07 08:33:07;;;;;;;4.70;1.97;;;15.80;99.90;;;;;;5035355;28;20079;-70
2023/04/07 08:35:33;;;;;;;3.73;1.87;;;16.30;99.90;;;;;;5034839;28;20272;-70
2023/04/07 08:38:01;;;;;;;3.60;1.65;;;16.30;99.90;;;;;;5035038;28;20426;-69
2023/04/07 08:40:28;;;;;;;4.30;1.70;;;16.30;99.90;;;;;;5034861;28;20056;-70
2023/04/07 08:42:57;;;;;;;3.97;1.73;;;15.00;99.90;;;;;;5034554;28;20025;-70
2023/04/07 08:45:25;;;;;;;6.95;1.95;;;14.60;99.90;;;;;;5034507;28;20455;-68
2023/04/07 08:47:55;;;;;;;4.07;1.70;;;15.40;99.90;;;;;;5042163;28;20021;-68
2023/04/07 08:50:24;;;;;;;4.13;1.77;;;16.10;99.90;;;;;;5054130;28;20090;-69
2023/04/07 08:52:53;;;;;;;4.70;1.80;;;16.60;99.90;;;;;;5036402;28;20422;-70
2023/04/07 08:55:20;;;;;;;4.28;1.60;;;16.80;99.90;;;;;;5054234;28;20029;-69
2023/04/07 08:57:47;;;;;;;3.17;1.42;;;16.40;99.90;;;;;;5054116;28;20030;-70
2023/04/07 09:00:14;;;;;;;4.65;1.63;;;15.40;99.90;;;;;;5036161;28;20087;-70
2023/04/07 09:02:44;;;;;;;5.78;1.60;;;15.70;99.90;;;;;;5053333;28;20520;-69
2023/04/07 09:05:13;;;;;;;4.68;1.50;;;16.20;99.90;;;;;;5053762;28;20489;-69
2023/04/07 09:07:42;;;;;;;6.10;1.67;;;16.50;99.90;;;;;;5054108;28;20023;-68
2023/04/07 09:10:08;;;;;;;4.07;1.83;;;15.10;99.90;;;;;;5035644;28;20049;-68
2023/04/07 09:12:36;;;;;;;4.20;1.65;;;14.70;99.90;;;;;;5053634;28;20433;-68
2023/04/07 09:15:06;;;;;;;2.85;1.50;;;15.40;99.90;;;;;;5053832;28;20494;-67
2023/04/07 09:17:32;;;;;;;5.25;1.50;;;15.90;99.90;;;;;;5053225;28;20033;-68
2023/04/07 09:20:00;;;;;;;5.27;1.50;;;15.80;99.90;;;;;;5053495;28;20445;-66
2023/04/07 09:22:37;;;;;;;5.55;1.50;;;16.10;99.90;;;;;;5035873;28;20041;-69
2023/04/07 09:25:26;;;;;;;5.90;2.05;;;15.70;99.90;;;;;;5053523;28;20057;-68
2023/04/07 09:28:02;;;;;;;4.95;1.77;;;15.50;99.90;;;;;;5051052;28;20095;-69
2023/04/07 09:30:33;;;;;;;5.70;1.83;;;16.40;99.90;;;;;;5049393;28;20036;-68
2023/04/07 09:33:00;;;;;;;6.88;1.70;;;17.30;99.90;;;;;;5052277;28;20108;-68
2023/04/07 09:35:27;;;;;;;4.90;1.85;;;17.60;99.90;;;;;;5053267;28;20025;-70
2023/04/07 09:38:02;;;;;;;6.30;1.70;;;17.70;99.90;;;;;;5053661;28;20036;-70
2023/04/07 09:40:28;;;;;;;6.15;2.00;;;17.30;99.90;;;;;;5053315;28;20032;-68
2023/04/07 09:42:57;;;;;;;4.15;1.52;;;17.50;99.90;;;;;;5053173;28;20027;-70
2023/04/07 09:45:28;;;;;;;5.95;1.80;;;17.20;99.90;;;;;;5053147;28;20033;-69
2023/04/07 09:47:54;;;;;;;6.47;1.75;;;17.40;99.90;;;;;;5027523;28;20037;-69
2023/04/07 09:50:34;;;;;;;4.95;1.73;;;17.70;99.90;;;;;;5014950;28;20087;-69
2023/04/07 09:53:01;;;;;;;4.35;1.67;;;17.80;99.90;;;;;;5033181;28;20553;-69
2023/04/07 09:55:29;;;;;;;3.55;1.70;;;17.90;99.90;;;;;;5033476;28;20028;-70
2023/04/07 09:57:55;;;;;;;6.68;1.73;;;17.90;99.90;;;;;;5033142;28;20154;-69
2023/04/07 10:00:22;;;;;;;5.75;1.80;;;17.70;99.90;;;;;;5031443;28;20056;-67
2023/04/07 10:02:49;;;;;;;;;;;17.80;99.90;;;;;;5033320;28;20051;-69
2023/04/07 10:05:19;;;;;;;7.50;1.60;;;18.00;99.90;;;;;;5031242;28;20015;-69
2023/04/07 10:07:47;;;;;;;7.90;2.40;;;18.20;99.90;;;;;;5033129;28;20053;-69
2023/04/07 10:10:13;;;;;;;7.18;2.35;;;18.00;99.90;;;;;;5032632;28;20032;-69
2023/04/07 10:12:40;;;;;;;4.63;1.60;;;18.10;99.90;;;;;;5033035;28;20025;-70
2023/04/07 10:15:10;;;;;;;3.45;1.33;;;18.10;99.90;;;;;;5032816;28;20017;-67
2023/04/07 10:17:37;;;;;;;4.45;1.60;;;18.10;99.90;;;;;;5019947;28;20128;-67
2023/04/07 10:20:06;;;;;;;8.20;1.88;;;17.90;99.90;;;;;;5052446;28;20028;-69
2023/04/07 10:22:33;;;;;;;6.75;2.30;;;17.80;99.90;;;;;;5051940;28;20039;-69
2023/04/07 10:25:09;;;;;;;3.85;1.83;;;18.00;99.90;;;;;;5052209;28;20037;-69
2023/04/07 10:27:48;;;;;;;6.00;1.42;;;17.70;99.90;;;;;;5052648;28;20020;-69
2023/04/07 10:30:20;;;;;;;4.78;1.90;;;17.90;99.90;;;;;;5052549;28;20384;-69
2023/04/07 10:32:51;;;;;;;7.35;1.77;;;18.00;99.90;;;;;;5051959;28;20032;-69
2023/04/07 10:35:17;;;;;;;4.65;1.65;;;17.80;99.90;;;;;;5051067;28;20037;-67
2023/04/07 10:38:07;;;;;;;4.95;1.88;;;17.50;99.90;;;;;;5051038;28;20025;-69
2023/04/07 10:40:35;;;;;;;5.00;1.80;;;17.80;99.90;;;;;;5041369;28;20036;-69
2023/04/07 10:43:01;;;;;;;6.78;1.75;;;17.40;99.90;;;;;;5050986;28;20230;-68
2023/04/07 10:45:47;;;;;;;4.38;1.50;;;17.20;99.90;;;;;;5051015;28;20021;-69
2023/04/07 10:48:16;;;;;;;6.53;1.83;;;17.60;99.90;;;;;;5051870;28;20495;-69
2023/04/07 10:50:45;;;;;;;4.15;1.83;;;17.20;99.90;;;;;;5033238;28;20571;-68
2023/04/07 10:53:15;;;;;;;6.25;2.38;;;16.90;99.90;;;;;;5051963;28;20028;-70
2023/04/07 10:55:42;;;;;;;5.80;1.80;;;17.00;99.90;;;;;;5051974;28;20032;-70
2023/04/07 10:58:15;;;;;;;3.35;1.80;;;17.20;99.90;;;;;;5051657;28;20028;-68
2023/04/07 11:01:02;;;;;;;4.47;1.70;;;16.90;99.90;;;;;;5052425;28;20029;-69
2023/04/07 11:03:33;;;;;;;9.77;2.03;;;17.30;99.90;;;;;;5052371;28;20478;-70
2023/04/07 11:06:09;;;;;;;7.72;1.77;;;17.70;99.90;;;;;;5052009;28;20166;-69
2023/04/07 11:08:38;;;;;;;6.73;1.70;;;17.70;99.90;;;;;;5052169;28;20028;-70
2023/04/07 11:11:07;;;;;;;2.90;1.60;;;18.00;99.90;;;;;;5052600;28;20263;-71
2023/04/07 11:13:47;;;;;;;4.05;1.63;;;17.80;99.90;;;;;;5051755;28;20148;-68
2023/04/07 11:16:17;;;;;;;6.82;1.83;;;17.70;99.90;;;;;;5052535;28;20035;-68
2023/04/07 11:18:46;;;;;;;5.93;1.85;;;18.00;99.90;;;;;;5052297;28;20504;-70
2023/04/07 11:21:17;;;;;;;5.32;1.58;;;18.20;99.90;;;;;;5052341;28;20490;-68
2023/04/07 11:23:46;;;;;;;4.32;1.40;;;17.90;99.90;;;;;;5052431;28;20075;-69
2023/04/07 11:26:14;;;;;;;4.13;1.55;;;18.20;99.90;;;;;;5052322;28;20044;-69
2023/04/07 11:28:48;;;;;;;2.70;1.48;;;18.40;99.90;;;;;;5034511;28;20025;-69
2023/04/07 11:31:24;;;;;;;4.07;1.65;;;18.00;99.90;;;;;;5052626;28;20021;-70
2023/04/07 11:33:55;;;;;;;6.65;1.85;;;18.00;99.90;;;;;;5052628;28;20021;-70
2023/04/07 11:36:30;;;;;;;5.40;1.60;;;17.70;99.90;;;;;;5052222;28;20044;-70
2023/04/07 11:38:56;;;;;;;6.05;1.73;;;17.90;99.90;;;;;;5052416;28;20551;-69
2023/04/07 11:41:25;;;;;;;;;;;18.00;99.90;;;;;;5052819;28;20356;-69
2023/04/07 11:44:11;;;;;;;6.85;1.65;;;18.10;99.90;;;;;;5056186;28;19905;-68
2023/04/07 11:46:52;;;;;;;7.55;1.67;;;18.00;99.90;;;;;;5055856;28;20041;-69
2023/04/07 11:49:18;;;;;;;5.38;1.80;;;18.20;99.90;;;;;;5055723;28;20021;-69
2023/04/07 11:51:45;;;;;;;4.68;1.80;;;18.10;99.90;;;;;;5055501;28;20099;-69
2023/04/07 11:54:12;;;;;;;4.60;1.65;;;17.70;99.90;;;;;;5055613;28;20021;-70
2023/04/07 11:56:46;;;;;;;4.57;1.60;;;17.80;99.90;;;;;;5056225;28;20025;-69
2023/04/07 11:59:24;;;;;;;4.82;1.65;;;17.90;99.90;;;;;;5055604;28;20033;-69
2023/04/07 12:01:52;;;;;;;4.13;1.60;;;17.80;99.90;;;;;;5056128;28;20396;-68
2023/04/07 12:04:26;;;;;;;3.70;1.33;;;17.60;99.90;;;;;;5055344;28;20075;-69
2023/04/07 12:06:52;;;;;;;3.63;1.50;;;17.50;99.90;;;;;;5055915;28;20045;-71
2023/04/07 12:09:34;;;;;;;4.18;1.75;;;17.60;99.90;;;;;;5055970;28;20025;-71
2023/04/07 12:12:02;;;;;;;4.78;1.65;;;17.60;99.90;;;;;;5055923;28;20025;-70
2023/04/07 12:14:29;;;;;;;3.88;1.77;;;17.80;99.90;;;;;;5055599;28;20025;-70
2023/04/07 12:16:57;;;;;;;3.78;1.60;;;17.80;99.90;;;;;;5055340;28;20013;-71
2023/04/07 12:19:26;;;;;;;4.30;1.73;;;17.80;99.90;;;;;;5055393;28;20052;-71
2023/04/07 12:21:53;;;;;;;4.85;1.85;;;18.10;99.90;;;;;;5055658;28;20032;-69
2023/04/07 12:24:20;;;;;;;3.75;1.73;;;18.00;99.90;;;;;;5055934;28;20108;-70
2023/04/07 12:26:47;;;;;;;4.32;1.85;;;17.70;99.90;;;;;;5055891;28;20033;-70
2023/04/07 12:29:15;;;;;;;5.35;1.88;;;17.90;99.90;;;;;;5037479;28;20028;-71
2023/04/07 12:31:42;;;;;;;6.28;1.80;;;18.30;99.90;;;;;;5055006;28;20048;-71
2023/04/07 12:34:09;;;;;;;5.05;1.80;;;18.10;99.90;;;;;;5055418;28;20017;-71
2023/04/07 12:36:35;;;;;;;5.65;1.80;;;18.10;99.90;;;;;;5055109;28;20102;-71
2023/04/07 12:39:01;;;;;;;3.78;1.60;;;18.00;99.90;;;;;;5055154;28;20427;-71
2023/04/07 12:41:28;;;;;;;3.70;1.65;;;17.80;99.90;;;;;;5055400;28;20056;-70
2023/04/07 12:43:54;;;;;;;6.05;1.80;;;17.70;99.90;;;;;;5055546;28;20025;-71
2023/04/07 12:46:20;;;;;;;5.10;1.70;;;17.50;99.90;;;;;;5055074;28;20033;-72
2023/04/07 12:48:46;;;;;;;4.25;1.55;;;17.40;99.90;;;;;;5054879;28;20028;-70
2023/04/07 12:51:13;;;;;;;3.88;1.67;;;17.50;99.90;;;;;;5054783;28;20472;-70
2023/04/07 12:53:39;;;;;;;10.93;1.70;;;17.70;99.90;;;;;;5054755;28;20052;-71
2023/04/07 12:56:06;;;;;;;5.75;1.95;;;17.80;99.90;;;;;;5055054;28;20457;-71
2023/04/07 12:58:32;;;;;;;5.05;1.90;;;17.50;99.90;;;;;;5054788;28;20079;-71